Oliver, Georgia
Current Conditions -  °F | °C
As of 7:15 PM on Tuesday 25 Nov 2014 (Local Time) from KJYL Reporting Station
Overcast Overcast  
Wind Chill: 55°   Ceiling: 2800
Heat Index: 55°   Visibility: 10mi
Dew Point: 54°   Wind: 3mph
Humidity: 96%   Direction: 330°NNW
Pressure: 30.04"   Gusts: NA
Location:  32.52°N, 81.53°W
Report Text: KJYL 260015Z AUTO 33003KT 10SM SCT022 BKN028 OVC075 13/12 A3004 RMK AO2 T01300123
Loading
Personal Weather Stations






























Interactive Weather Map New forecast layout! Learn more

10-Day Weather Forecast

Advertisements
Track Severe Weather on mobile